createdAt,value
2023-01-09T00:01:47.992Z,6.65
2023-01-09T00:04:17.221Z,6.76
2023-01-09T00:06:53.634Z,6.83
2023-01-09T00:09:24.833Z,6.81
2023-01-09T00:11:54.849Z,6.95
2023-01-09T00:14:24.135Z,7.02
2023-01-09T00:16:55.350Z,7.15
2023-01-09T00:19:24.040Z,7.19
2023-01-09T00:21:52.469Z,7.36
2023-01-09T00:24:21.063Z,7.44
2023-01-09T00:26:50.939Z,7.43
2023-01-09T00:29:20.277Z,7.46
2023-01-09T00:31:48.712Z,7.50
2023-01-09T00:34:17.251Z,7.54
2023-01-09T00:36:45.803Z,7.58
2023-01-09T00:39:14.213Z,7.52
2023-01-09T00:41:46.731Z,7.57
2023-01-09T00:44:23.676Z,7.59
2023-01-09T00:46:59.954Z,7.56
2023-01-09T00:49:31.379Z,7.66
2023-01-09T00:52:00.038Z,7.57
2023-01-09T00:54:29.697Z,7.52
2023-01-09T00:56:58.726Z,7.48
2023-01-09T00:59:29.961Z,7.50
2023-01-09T01:01:59.204Z,7.61
2023-01-09T01:04:56.872Z,7.68
2023-01-09T01:07:41.078Z,7.68
2023-01-09T01:10:12.421Z,7.76
2023-01-09T01:12:41.554Z,7.75
2023-01-09T01:15:12.919Z,7.81
2023-01-09T01:17:42.309Z,7.78
2023-01-09T01:20:14.373Z,7.84
2023-01-09T01:22:43.310Z,7.84
2023-01-09T01:25:13.366Z,7.92
2023-01-09T01:27:42.009Z,7.93
2023-01-09T01:30:14.368Z,7.84
2023-01-09T01:32:43.150Z,7.82
2023-01-09T01:35:12.114Z,7.77
2023-01-09T01:37:41.084Z,7.97
2023-01-09T01:40:12.611Z,7.99
2023-01-09T01:42:47.110Z,8.04
2023-01-09T01:45:19.452Z,8.14
2023-01-09T01:47:53.701Z,8.11
2023-01-09T01:50:31.251Z,8.13
2023-01-09T01:53:08.103Z,8.06
2023-01-09T01:55:39.902Z,8.11
2023-01-09T01:58:11.214Z,7.91
2023-01-09T02:00:44.736Z,7.87
2023-01-09T02:03:16.669Z,7.88
2023-01-09T02:05:45.808Z,7.90
2023-01-09T02:08:14.625Z,7.80
2023-01-09T02:10:43.610Z,7.76
2023-01-09T02:13:14.192Z,7.69
2023-01-09T02:15:59.258Z,7.61
2023-01-09T02:18:34.369Z,7.51
2023-01-09T02:21:08.068Z,7.42
2023-01-09T02:24:11.393Z,7.36
2023-01-09T02:26:57.211Z,7.31
2023-01-09T02:30:04.174Z,7.25
2023-01-09T02:32:42.943Z,7.20
2023-01-09T02:35:23.258Z,7.17
2023-01-09T02:38:00.069Z,7.15
2023-01-09T02:40:34.602Z,7.14
2023-01-09T02:43:04.411Z,7.09
2023-01-09T02:45:32.917Z,7.04
2023-01-09T02:48:02.777Z,7.04
2023-01-09T02:50:37.929Z,7.02
2023-01-09T02:53:43.138Z,7.03
2023-01-09T02:56:36.325Z,6.96
2023-01-09T02:59:21.803Z,6.85
2023-01-09T03:02:03.131Z,6.86
2023-01-09T03:04:44.011Z,6.85
2023-01-09T03:07:19.183Z,6.88
2023-01-09T03:09:50.418Z,6.85
2023-01-09T03:12:25.837Z,6.77
2023-01-09T03:14:57.993Z,6.79
2023-01-09T03:17:30.908Z,6.80
2023-01-09T03:20:03.541Z,6.89
2023-01-09T03:22:32.170Z,6.91
2023-01-09T03:25:00.605Z,6.94
2023-01-09T03:27:29.402Z,7.12
2023-01-09T03:29:57.917Z,7.14
2023-01-09T03:32:27.775Z,7.10
2023-01-09T03:34:56.316Z,6.95
2023-01-09T03:37:26.157Z,6.84
2023-01-09T03:39:54.587Z,6.80
2023-01-09T03:42:23.095Z,6.74
2023-01-09T03:44:52.048Z,6.69
2023-01-09T03:47:20.484Z,6.70
2023-01-09T03:49:49.026Z,6.63
2023-01-09T03:52:17.434Z,6.64
2023-01-09T03:54:47.330Z,6.63
2023-01-09T03:57:15.931Z,6.61
2023-01-09T03:59:44.370Z,6.59
2023-01-09T04:02:13.021Z,6.57
2023-01-09T04:04:41.711Z,6.49
2023-01-09T04:07:10.236Z,6.48
2023-01-09T04:09:38.772Z,6.50
2023-01-09T04:12:08.930Z,6.47
2023-01-09T04:14:37.387Z,6.50
2023-01-09T04:17:05.815Z,6.41
2023-01-09T04:19:34.389Z,6.43
2023-01-09T04:22:02.890Z,6.49
2023-01-09T04:24:32.321Z,6.44
2023-01-09T04:27:00.919Z,6.41
2023-01-09T04:29:30.847Z,6.38
2023-01-09T04:31:59.299Z,6.44
2023-01-09T04:34:27.714Z,6.43
2023-01-09T04:36:57.081Z,6.51
2023-01-09T04:39:25.526Z,6.61
2023-01-09T04:41:53.939Z,6.64
2023-01-09T04:44:26.126Z,6.69
2023-01-09T04:46:58.793Z,6.78
2023-01-09T04:49:27.385Z,6.71
2023-01-09T04:51:56.276Z,6.65
2023-01-09T04:54:24.694Z,6.63
2023-01-09T04:56:53.067Z,6.63
2023-01-09T04:59:21.529Z,6.60
2023-01-09T05:01:52.222Z,6.54
2023-01-09T05:04:22.096Z,6.53
2023-01-09T05:06:50.549Z,6.41
2023-01-09T05:09:19.031Z,6.34
2023-01-09T05:11:47.434Z,6.21
2023-01-09T05:14:15.890Z,6.17
2023-01-09T05:16:44.429Z,6.18
2023-01-09T05:19:13.071Z,6.11
2023-01-09T05:21:42.856Z,6.10
2023-01-09T05:24:11.343Z,6.05
2023-01-09T05:26:39.815Z,6.01
2023-01-09T05:29:08.254Z,5.89
2023-01-09T05:31:36.654Z,5.86
2023-01-09T05:34:05.333Z,5.78
2023-01-09T05:36:33.859Z,5.79
2023-01-09T05:39:03.731Z,5.75
2023-01-09T05:41:32.158Z,5.80
2023-01-09T05:44:00.555Z,5.75
2023-01-09T05:46:28.983Z,5.73
2023-01-09T05:48:57.762Z,5.69
2023-01-09T05:51:26.260Z,5.62
2023-01-09T05:53:54.786Z,5.61
2023-01-09T05:56:24.569Z,5.58
2023-01-09T05:58:53.027Z,5.55
2023-01-09T06:01:23.662Z,5.46
2023-01-09T06:03:52.436Z,5.44
2023-01-09T06:06:20.824Z,5.32
2023-01-09T06:08:49.362Z,5.33
2023-01-09T06:11:17.887Z,5.36
2023-01-09T06:13:47.749Z,5.24
2023-01-09T06:16:16.372Z,5.19
2023-01-09T06:18:44.863Z,5.13
2023-01-09T06:21:13.305Z,5.09
2023-01-09T06:23:41.757Z,5.05
2023-01-09T06:26:10.190Z,5.10
2023-01-09T06:28:38.794Z,4.95
2023-01-09T06:31:08.581Z,5.02
2023-01-09T06:33:37.131Z,4.93
2023-01-09T06:36:06.380Z,4.88
2023-01-09T06:38:34.909Z,4.93
2023-01-09T06:41:03.410Z,4.91
2023-01-09T06:43:32.272Z,4.97
2023-01-09T06:46:00.993Z,4.93
2023-01-09T06:48:30.772Z,4.91
2023-01-09T06:50:59.182Z,4.92
2023-01-09T06:53:27.727Z,4.90
2023-01-09T06:55:56.195Z,4.84
2023-01-09T06:58:24.720Z,4.83
2023-01-09T07:00:53.575Z,4.82
2023-01-09T07:03:22.547Z,4.82
2023-01-09T07:05:52.751Z,4.80
2023-01-09T07:08:21.236Z,4.75
2023-01-09T07:10:49.764Z,4.81
2023-01-09T07:13:18.216Z,4.83
2023-01-09T07:15:46.642Z,4.80
2023-01-09T07:18:15.090Z,4.83
2023-01-09T07:20:43.572Z,4.90
2023-01-09T07:23:14.013Z,4.94
2023-01-09T07:25:43.670Z,5.01
2023-01-09T07:28:12.341Z,5.06
2023-01-09T07:30:40.805Z,5.10
2023-01-09T07:33:09.245Z,5.14
2023-01-09T07:35:37.775Z,5.25
2023-01-09T07:38:06.185Z,5.26
2023-01-09T07:40:36.089Z,5.35
2023-01-09T07:43:04.728Z,5.39
2023-01-09T07:45:33.257Z,5.40
2023-01-09T07:48:01.760Z,5.44
2023-01-09T07:50:30.179Z,5.40
2023-01-09T07:52:58.753Z,5.40
2023-01-09T07:55:27.230Z,5.37
2023-01-09T07:57:57.043Z,5.40
2023-01-09T08:00:25.519Z,5.33
2023-01-09T08:02:54.642Z,5.42
2023-01-09T08:05:23.205Z,5.46
2023-01-09T08:07:51.783Z,5.44
2023-01-09T08:10:21.087Z,5.44
2023-01-09T08:12:50.673Z,5.48
2023-01-09T08:15:20.478Z,5.53
2023-01-09T08:17:49.004Z,5.52
2023-01-09T08:20:18.908Z,5.53
2023-01-09T08:22:50.555Z,5.45
2023-01-09T08:25:19.357Z,5.39
2023-01-09T08:27:48.189Z,5.39
2023-01-09T08:30:17.838Z,5.40
2023-01-09T08:32:52.417Z,5.44
2023-01-09T08:35:21.306Z,5.43
2023-01-09T08:37:50.401Z,5.41
2023-01-09T08:40:19.607Z,5.47
2023-01-09T08:43:05.799Z,5.48
2023-01-09T08:45:52.863Z,5.43
2023-01-09T08:48:22.742Z,5.51
2023-01-09T08:50:52.190Z,5.45
2023-01-09T08:53:20.719Z,5.51
2023-01-09T08:55:49.256Z,5.55
2023-01-09T08:58:17.708Z,5.60
2023-01-09T09:00:46.231Z,5.65
2023-01-09T09:03:14.691Z,5.74
2023-01-09T09:05:46.680Z,5.80
2023-01-09T09:08:15.727Z,5.84
2023-01-09T09:10:44.260Z,5.82
2023-01-09T09:13:12.805Z,5.85
2023-01-09T09:15:41.242Z,5.77
2023-01-09T09:18:09.795Z,5.81
2023-01-09T09:20:39.996Z,5.73
2023-01-09T09:23:09.859Z,5.76
2023-01-09T09:25:39.348Z,5.93
2023-01-09T09:28:08.517Z,5.95
2023-01-09T09:30:38.949Z,6.03
2023-01-09T09:33:07.418Z,6.06
2023-01-09T09:35:36.048Z,6.10
2023-01-09T09:38:06.222Z,6.22
2023-01-09T09:41:29.020Z,6.25
2023-01-09T09:44:34.404Z,6.29
2023-01-09T09:47:11.213Z,6.35
2023-01-09T09:49:51.447Z,6.45
2023-01-09T09:52:30.408Z,6.56
2023-01-09T09:55:03.262Z,6.56
2023-01-09T09:57:37.765Z,6.53
2023-01-09T10:00:08.974Z,6.45
2023-01-09T10:02:47.366Z,6.44
2023-01-09T10:05:22.193Z,6.39
2023-01-09T10:07:52.248Z,6.40
2023-01-09T10:10:23.463Z,6.51
2023-01-09T10:12:55.579Z,6.61
2023-01-09T10:15:38.343Z,6.65
2023-01-09T10:18:20.476Z,6.67
2023-01-09T10:20:57.486Z,6.66
2023-01-09T10:23:47.580Z,6.77
2023-01-09T10:26:26.509Z,6.91
2023-01-09T10:29:10.222Z,6.87
2023-01-09T10:31:49.834Z,6.87
2023-01-09T10:34:32.258Z,6.95
2023-01-09T10:37:03.057Z,7.00
2023-01-09T10:39:38.247Z,7.24
2023-01-09T10:42:14.058Z,7.48
2023-01-09T10:44:50.238Z,7.62
2023-01-09T10:47:23.169Z,7.72
2023-01-09T10:49:53.680Z,7.71
2023-01-09T10:52:27.241Z,7.63
2023-01-09T10:54:57.373Z,7.52
2023-01-09T10:57:42.343Z,7.57
2023-01-09T11:00:23.388Z,7.52
2023-01-09T11:02:52.934Z,7.46
2023-01-09T11:05:24.137Z,7.48
2023-01-09T11:07:56.844Z,7.41
2023-01-09T11:10:46.313Z,7.41
2023-01-09T11:13:19.703Z,7.35
2023-01-09T11:16:00.881Z,7.30
2023-01-09T11:18:29.540Z,7.38
2023-01-09T11:21:12.898Z,7.36
2023-01-09T11:23:41.537Z,7.45
2023-01-09T11:26:23.365Z,7.51
2023-01-09T11:29:11.077Z,7.61
2023-01-09T11:31:42.579Z,7.62
2023-01-09T11:34:17.597Z,7.68
2023-01-09T11:36:47.211Z,7.63
2023-01-09T11:39:24.460Z,7.54
2023-01-09T11:41:55.072Z,7.46
2023-01-09T11:44:24.451Z,7.40
2023-01-09T11:46:54.812Z,7.46
2023-01-09T11:49:25.980Z,7.43
2023-01-09T11:52:16.523Z,7.43
2023-01-09T11:54:50.752Z,7.37
2023-01-09T11:57:19.534Z,7.34
2023-01-09T11:59:48.098Z,7.37
2023-01-09T12:02:53.207Z,7.26
2023-01-09T12:05:35.929Z,7.29
2023-01-09T12:08:11.215Z,7.34
2023-01-09T12:11:19.013Z,7.45
2023-01-09T12:14:04.287Z,7.49
2023-01-09T12:16:39.580Z,7.48
2023-01-09T12:19:29.443Z,7.55
2023-01-09T12:22:07.567Z,7.54
2023-01-09T12:24:53.285Z,7.58
2023-01-09T12:27:44.746Z,7.61
2023-01-09T12:30:37.606Z,7.70
2023-01-09T12:33:27.825Z,7.60
2023-01-09T12:36:10.297Z,7.58
2023-01-09T12:38:48.035Z,7.60
2023-01-09T12:41:52.665Z,7.60
2023-01-09T12:44:53.566Z,7.57
2023-01-09T12:47:39.849Z,7.65
2023-01-09T12:50:32.835Z,7.55
2023-01-09T12:53:12.165Z,7.48
2023-01-09T12:55:44.200Z,7.48
2023-01-09T12:58:21.166Z,7.47
2023-01-09T13:00:52.821Z,7.48
2023-01-09T13:03:29.924Z,7.42
2023-01-09T13:05:59.517Z,7.36
2023-01-09T13:08:33.417Z,7.25
2023-01-09T13:11:19.384Z,7.28
2023-01-09T13:13:53.798Z,7.34
2023-01-09T13:16:27.031Z,7.29
2023-01-09T13:19:00.253Z,7.19
2023-01-09T13:21:28.929Z,7.30
2023-01-09T13:24:03.293Z,7.27
2023-01-09T13:26:36.887Z,7.20
2023-01-09T13:29:14.059Z,7.26
2023-01-09T13:32:15.850Z,7.28
2023-01-09T13:34:47.848Z,7.39
2023-01-09T13:37:24.333Z,7.31
2023-01-09T13:39:59.480Z,7.27
2023-01-09T13:42:39.066Z,7.20
2023-01-09T13:45:20.032Z,7.23
2023-01-09T13:48:08.700Z,7.30
2023-01-09T13:50:39.477Z,7.40
2023-01-09T13:53:41.394Z,7.45
2023-01-09T13:56:09.952Z,7.41
2023-01-09T13:58:58.161Z,7.34
2023-01-09T14:01:44.067Z,7.28
2023-01-09T14:04:45.722Z,7.30
2023-01-09T14:07:33.786Z,7.25
2023-01-09T14:10:05.933Z,7.27
2023-01-09T14:12:41.116Z,7.29
2023-01-09T14:15:26.855Z,7.12
2023-01-09T14:18:00.471Z,7.06
2023-01-09T14:20:33.802Z,6.98
2023-01-09T14:23:35.331Z,7.05
2023-01-09T14:25:53.739Z,7.00
2023-01-09T14:28:23.896Z,6.97
2023-01-09T14:31:27.197Z,6.88
2023-01-09T14:34:31.536Z,6.78
2023-01-09T14:37:03.359Z,6.69
2023-01-09T14:39:34.294Z,6.66
2023-01-09T14:42:07.971Z,6.64
2023-01-09T14:44:48.359Z,6.53
2023-01-09T14:47:20.838Z,6.52
2023-01-09T14:49:56.092Z,6.46
2023-01-09T14:52:28.920Z,6.40
2023-01-09T14:55:00.949Z,6.36
2023-01-09T14:57:30.904Z,6.34
2023-01-09T15:00:00.470Z,6.39
2023-01-09T15:02:31.879Z,6.38
2023-01-09T15:05:04.874Z,6.36
2023-01-09T15:07:40.514Z,6.33
2023-01-09T15:10:18.209Z,6.30
2023-01-09T15:12:47.579Z,6.21
2023-01-09T15:15:16.715Z,6.16
2023-01-09T15:17:47.892Z,6.07
2023-01-09T15:20:19.480Z,5.98
2023-01-09T15:22:52.791Z,5.87
2023-01-09T15:25:33.763Z,5.83
2023-01-09T15:28:27.953Z,5.80
2023-01-09T15:31:05.664Z,5.75
2023-01-09T15:33:35.636Z,5.74
2023-01-09T15:36:11.982Z,5.68
2023-01-09T15:38:42.646Z,5.63
2023-01-09T15:41:37.927Z,5.65
2023-01-09T15:44:13.974Z,5.68
2023-01-09T15:46:46.181Z,5.70
2023-01-09T15:49:15.367Z,5.72
2023-01-09T15:51:46.848Z,5.69
2023-01-09T15:54:16.249Z,5.64
2023-01-09T15:56:46.884Z,5.61
2023-01-09T15:59:27.008Z,5.55
2023-01-09T16:02:14.432Z,5.48
2023-01-09T16:04:42.985Z,5.48
2023-01-09T16:07:16.027Z,5.43
2023-01-09T16:09:47.488Z,5.40
2023-01-09T16:12:20.972Z,5.34
2023-01-09T16:14:52.649Z,5.25
2023-01-09T16:17:23.923Z,5.21
2023-01-09T16:19:53.998Z,5.11
2023-01-09T16:22:24.284Z,5.16
2023-01-09T16:24:54.509Z,5.10
2023-01-09T16:27:27.112Z,5.01
2023-01-09T16:29:58.394Z,4.97
2023-01-09T16:32:30.724Z,4.92
2023-01-09T16:35:04.636Z,4.95
2023-01-09T16:37:35.980Z,5.01
2023-01-09T16:40:36.185Z,5.06
2023-01-09T16:43:10.977Z,5.12
2023-01-09T16:45:41.359Z,5.12
2023-01-09T16:48:14.938Z,5.16
2023-01-09T16:50:44.507Z,5.14
2023-01-09T16:53:16.787Z,5.09
2023-01-09T16:55:45.911Z,5.05
2023-01-09T16:58:19.207Z,5.05
2023-01-09T17:00:48.227Z,5.04
2023-01-09T17:03:19.162Z,4.94
2023-01-09T17:05:49.994Z,4.92
2023-01-09T17:08:22.531Z,4.88
2023-01-09T17:10:51.608Z,4.86
2023-01-09T17:13:21.557Z,4.89
2023-01-09T17:15:50.764Z,4.90
2023-01-09T17:18:21.188Z,4.83
2023-01-09T17:20:52.247Z,4.83
2023-01-09T17:23:22.367Z,4.85
2023-01-09T17:26:09.912Z,4.86
2023-01-09T17:28:41.750Z,4.85
2023-01-09T17:31:12.643Z,4.90
2023-01-09T17:33:42.453Z,4.83
2023-01-09T17:36:29.123Z,4.84
2023-01-09T17:38:57.747Z,4.84
2023-01-09T17:41:27.909Z,4.82
2023-01-09T17:43:58.211Z,4.81
2023-01-09T17:46:30.370Z,4.83
2023-01-09T17:48:59.703Z,4.77
2023-01-09T17:51:29.236Z,4.71
2023-01-09T17:53:58.393Z,4.63
2023-01-09T17:56:30.390Z,4.55
2023-01-09T17:59:00.418Z,4.51
2023-01-09T18:01:29.437Z,4.49
2023-01-09T18:03:58.037Z,4.51
2023-01-09T18:06:26.604Z,4.46
2023-01-09T18:08:57.335Z,4.43
2023-01-09T18:11:26.681Z,4.43
2023-01-09T18:13:56.185Z,4.43
2023-01-09T18:16:29.291Z,4.48
2023-01-09T18:18:59.778Z,4.45
2023-01-09T18:21:29.914Z,4.49
2023-01-09T18:23:59.296Z,4.52
2023-01-09T18:26:27.917Z,4.57
2023-01-09T18:28:58.177Z,4.55
2023-01-09T18:31:30.398Z,4.62
2023-01-09T18:34:02.378Z,4.62
2023-01-09T18:36:31.488Z,4.65
2023-01-09T18:39:02.543Z,4.69
2023-01-09T18:41:31.643Z,4.72
2023-01-09T18:44:01.458Z,4.69
2023-01-09T18:46:32.276Z,4.73
2023-01-09T18:49:02.285Z,4.75
2023-01-09T18:51:32.304Z,4.78
2023-01-09T18:54:00.756Z,4.82
2023-01-09T18:56:29.483Z,4.75
2023-01-09T18:58:59.042Z,4.74
2023-01-09T19:01:28.992Z,4.75
2023-01-09T19:04:00.276Z,4.77
2023-01-09T19:06:30.444Z,4.78
2023-01-09T19:08:59.571Z,4.71
2023-01-09T19:11:28.078Z,4.69
2023-01-09T19:13:56.559Z,4.64
2023-01-09T19:16:25.048Z,4.59
2023-01-09T19:18:53.613Z,4.59
2023-01-09T19:21:26.720Z,4.59
2023-01-09T19:23:55.355Z,4.55
2023-01-09T19:26:25.988Z,4.57
2023-01-09T19:28:57.526Z,4.51
2023-01-09T19:31:28.427Z,4.50
2023-01-09T19:33:58.504Z,4.49
2023-01-09T19:36:29.455Z,4.49
2023-01-09T19:38:58.620Z,4.46
2023-01-09T19:41:27.543Z,4.39
2023-01-09T19:43:56.364Z,4.28
2023-01-09T19:46:26.369Z,4.26
2023-01-09T19:48:56.937Z,4.22
2023-01-09T19:51:26.378Z,4.11
2023-01-09T19:56:28.962Z,4.09
2023-01-09T19:58:59.407Z,4.05
2023-01-09T20:01:30.591Z,4.04
2023-01-09T20:04:02.818Z,4.07
2023-01-09T20:06:32.522Z,4.04
2023-01-09T20:09:07.627Z,4.01
2023-01-09T20:11:36.353Z,3.99
2023-01-09T20:14:04.793Z,4.00
2023-01-09T20:16:33.414Z,3.92
2023-01-09T20:19:06.355Z,4.00
2023-01-09T20:21:35.991Z,3.98
2023-01-09T20:24:07.470Z,3.96
2023-01-09T20:26:37.468Z,3.95
2023-01-09T20:29:08.752Z,3.92
2023-01-09T20:31:37.869Z,3.91
2023-01-09T20:34:06.447Z,3.94
2023-01-09T20:36:35.011Z,3.93
2023-01-09T20:39:06.889Z,3.87
2023-01-09T20:41:35.583Z,3.88
2023-01-09T20:44:06.979Z,3.96
2023-01-09T20:46:37.872Z,3.95
2023-01-09T20:49:08.430Z,3.90
2023-01-09T20:51:38.141Z,3.86
2023-01-09T20:54:08.118Z,3.89
2023-01-09T20:56:37.075Z,3.90
2023-01-09T20:59:06.244Z,3.88
2023-01-09T21:01:35.249Z,3.84
2023-01-09T21:04:03.872Z,3.91
2023-01-09T21:06:32.923Z,3.86
2023-01-09T21:09:01.587Z,3.94
2023-01-09T21:11:31.429Z,3.87
2023-01-09T21:13:59.996Z,3.82
2023-01-09T21:16:29.376Z,3.88
2023-01-09T21:18:58.051Z,3.87
2023-01-09T21:21:28.224Z,3.81
2023-01-09T21:23:58.481Z,3.80
2023-01-09T21:26:30.353Z,3.87
2023-01-09T21:29:02.016Z,3.94
2023-01-09T21:31:34.489Z,3.97
2023-01-09T21:34:05.435Z,4.01
2023-01-09T21:36:35.295Z,3.99
2023-01-09T21:39:07.670Z,3.96
2023-01-09T21:41:54.264Z,3.94
2023-01-09T21:44:41.511Z,3.92
2023-01-09T21:47:10.331Z,3.96
2023-01-09T21:49:41.561Z,4.03
2023-01-09T21:52:10.810Z,3.98
2023-01-09T21:54:39.809Z,3.96
2023-01-09T21:57:09.098Z,3.93
2023-01-09T21:59:38.865Z,3.97
2023-01-09T22:02:07.704Z,4.00
2023-01-09T22:04:36.159Z,4.02
2023-01-09T22:07:04.701Z,4.01
2023-01-09T22:09:33.213Z,4.05
2023-01-09T22:12:01.701Z,4.05
2023-01-09T22:14:30.155Z,4.02
2023-01-09T22:16:59.966Z,4.04
2023-01-09T22:19:28.462Z,4.04
2023-01-09T22:21:56.925Z,4.04
2023-01-09T22:24:25.389Z,3.99
2023-01-09T22:26:53.847Z,4.02
2023-01-09T22:29:22.767Z,4.04
2023-01-09T22:31:51.483Z,4.05
2023-01-09T22:34:21.377Z,4.02
2023-01-09T22:36:49.927Z,4.01
2023-01-09T22:39:20.666Z,4.01
2023-01-09T22:41:52.403Z,4.01
2023-01-09T22:44:20.862Z,4.04
2023-01-09T22:46:49.521Z,4.04
2023-01-09T22:49:18.017Z,4.08
2023-01-09T22:51:47.850Z,4.08
2023-01-09T22:54:16.623Z,4.07
2023-01-09T22:56:45.101Z,4.06
2023-01-09T22:59:13.606Z,4.10
2023-01-09T23:01:42.222Z,4.11
2023-01-09T23:04:12.964Z,4.08
2023-01-09T23:06:41.505Z,4.03
2023-01-09T23:09:11.737Z,4.08
2023-01-09T23:11:57.531Z,4.08
2023-01-09T23:14:26.035Z,4.12
2023-01-09T23:16:54.744Z,4.09
2023-01-09T23:19:23.273Z,4.08
2023-01-09T23:21:51.731Z,4.09
2023-01-09T23:24:21.612Z,4.08
2023-01-09T23:26:50.168Z,4.10
2023-01-09T23:29:19.013Z,4.05
2023-01-09T23:31:47.539Z,4.02
2023-01-09T23:34:18.102Z,4.05
2023-01-09T23:36:48.426Z,4.08
2023-01-09T23:39:17.360Z,4.08
2023-01-09T23:42:04.698Z,4.09
2023-01-09T23:44:33.150Z,4.11
2023-01-09T23:47:01.653Z,4.10
2023-01-09T23:49:30.240Z,4.10
2023-01-09T23:52:01.616Z,4.08
2023-01-09T23:54:30.212Z,4.10
2023-01-09T23:57:00.041Z,4.11
2023-01-09T23:59:28.539Z,4.08
